createdAt,value
2022-12-05T00:00:18.570Z,0.78
2022-12-05T00:05:19.974Z,0.71
2022-12-05T00:10:21.354Z,0.62
2022-12-05T00:15:22.822Z,0.51
2022-12-05T00:20:24.241Z,0.37
2022-12-05T00:25:25.570Z,0.26
2022-12-05T00:30:26.927Z,0.32
2022-12-05T00:35:28.275Z,0.21
2022-12-05T00:40:30.112Z,0.23
2022-12-05T00:45:31.840Z,0.15
2022-12-05T00:50:33.218Z,0.04
2022-12-05T00:55:36.518Z,-0.13
2022-12-05T01:00:37.858Z,0.05
2022-12-05T01:05:39.172Z,-0.01
2022-12-05T01:10:40.492Z,0.10
2022-12-05T01:15:41.934Z,-0.14
2022-12-05T01:20:43.464Z,-0.26
2022-12-05T01:25:46.263Z,-0.14
2022-12-05T01:30:48.835Z,-0.29
2022-12-05T01:35:50.424Z,-0.38
2022-12-05T01:40:59.487Z,-0.46
2022-12-05T01:46:00.913Z,-0.51
2022-12-05T01:51:02.679Z,-0.53
2022-12-05T01:56:04.201Z,-0.50
2022-12-05T02:01:05.664Z,-0.41
2022-12-05T02:06:07.230Z,-0.35
2022-12-05T02:11:08.902Z,-0.43
2022-12-05T02:16:16.607Z,-0.33
2022-12-05T02:21:29.798Z,-0.30
2022-12-05T02:26:46.530Z,-0.31
2022-12-05T02:31:54.185Z,-0.37
2022-12-05T02:37:04.761Z,-0.20
2022-12-05T02:42:06.111Z,-0.28
2022-12-05T02:47:08.841Z,-0.43
2022-12-05T02:52:12.678Z,-0.37
2022-12-05T02:57:14.927Z,-0.27
2022-12-05T03:02:24.463Z,-0.41
2022-12-05T03:07:28.845Z,-0.34
2022-12-05T03:12:33.678Z,-0.51
2022-12-05T03:17:45.957Z,-0.52
2022-12-05T03:22:53.974Z,-0.41
2022-12-05T03:28:21.685Z,-0.37
2022-12-05T03:33:26.235Z,-0.54
2022-12-05T03:38:27.562Z,-0.41
2022-12-05T03:43:44.164Z,-0.28
2022-12-05T03:48:48.470Z,-0.24
2022-12-05T03:54:05.981Z,-0.26
2022-12-05T03:59:10.758Z,-0.19
2022-12-05T04:04:14.821Z,-0.26
2022-12-05T04:09:20.717Z,-0.17
2022-12-05T04:14:24.317Z,-0.06
2022-12-05T04:19:29.620Z,-0.14
2022-12-05T04:24:50.344Z,-0.11
2022-12-05T04:30:08.675Z,-0.37
2022-12-05T04:35:13.752Z,-0.51
2022-12-05T04:40:20.057Z,-0.48
2022-12-05T04:45:22.565Z,-0.27
2022-12-05T04:50:24.600Z,-0.20
2022-12-05T04:55:26.445Z,-0.26
2022-12-05T05:00:29.356Z,0.01
2022-12-05T05:05:31.521Z,-0.13
2022-12-05T05:10:37.262Z,-0.22
2022-12-05T05:15:38.643Z,-0.32
2022-12-05T05:20:39.979Z,-0.34
2022-12-05T05:25:41.312Z,-0.32
2022-12-05T05:30:42.624Z,-0.22
2022-12-05T05:35:43.965Z,-0.21
2022-12-05T05:40:45.289Z,-0.23
2022-12-05T05:45:46.615Z,-0.12
2022-12-05T05:50:47.994Z,-0.08
2022-12-05T05:55:49.297Z,-0.20
2022-12-05T06:00:50.773Z,-0.14
2022-12-05T06:05:58.930Z,-0.06
2022-12-05T06:11:00.406Z,-0.11
2022-12-05T06:16:02.017Z,-0.05
2022-12-05T06:21:03.991Z,-0.12
2022-12-05T06:26:05.811Z,-0.34
2022-12-05T06:31:12.051Z,-0.32
2022-12-05T06:36:15.004Z,-0.33
2022-12-05T06:41:17.933Z,-0.15
2022-12-05T06:46:19.320Z,-0.18
2022-12-05T06:51:20.739Z,-0.06
2022-12-05T06:56:22.129Z,-0.09
2022-12-05T07:01:40.755Z,0.01
2022-12-05T07:06:48.722Z,0.02
2022-12-05T07:11:51.737Z,-0.15
2022-12-05T07:16:53.086Z,-0.08
2022-12-05T07:21:54.462Z,0.09
2022-12-05T07:26:55.807Z,0.02
2022-12-05T07:31:57.214Z,-0.16
2022-12-05T07:36:58.557Z,-0.24
2022-12-05T07:41:59.880Z,-0.10
2022-12-05T07:47:01.275Z,0.14
2022-12-05T07:52:02.714Z,0.29
2022-12-05T07:57:04.115Z,0.36
2022-12-05T08:02:05.524Z,0.23
2022-12-05T08:07:09.609Z,0.53
2022-12-05T08:12:11.638Z,0.55
2022-12-05T08:17:12.998Z,0.60
2022-12-05T08:22:14.385Z,0.38
2022-12-05T08:27:15.852Z,0.57
2022-12-05T08:32:17.176Z,1.00
2022-12-05T08:37:18.542Z,0.80
2022-12-05T08:42:21.714Z,0.94
2022-12-05T08:47:23.072Z,1.34
2022-12-05T08:52:24.403Z,1.15
2022-12-05T08:57:25.802Z,1.54
2022-12-05T09:02:27.197Z,1.29
2022-12-05T09:07:28.918Z,1.44
2022-12-05T09:12:30.277Z,1.09
2022-12-05T09:17:31.669Z,1.60
2022-12-05T09:22:33.358Z,1.59
2022-12-05T09:27:34.717Z,1.57
2022-12-05T09:32:36.031Z,1.48
2022-12-05T09:37:39.629Z,1.67
2022-12-05T09:42:54.058Z,1.56
2022-12-05T09:48:00.071Z,2.12
2022-12-05T09:53:21.742Z,2.58
2022-12-05T09:58:27.930Z,2.92
2022-12-05T10:03:33.016Z,2.18
2022-12-05T10:08:41.122Z,2.02
2022-12-05T10:13:53.223Z,1.63
2022-12-05T10:18:57.301Z,2.09
2022-12-05T10:23:59.190Z,2.19
2022-12-05T10:29:19.567Z,2.16
2022-12-05T10:34:20.840Z,2.46
2022-12-05T10:39:22.716Z,2.71
2022-12-05T10:44:24.055Z,2.27
2022-12-05T10:49:26.183Z,2.39
2022-12-05T10:54:29.737Z,2.93
2022-12-05T10:59:57.574Z,2.28
2022-12-05T11:05:00.458Z,2.59
2022-12-05T11:10:03.303Z,2.25
2022-12-05T11:15:06.817Z,2.40
2022-12-05T11:20:20.296Z,2.68
2022-12-05T11:25:28.937Z,2.66
2022-12-05T11:30:30.326Z,2.42
2022-12-05T11:35:31.697Z,2.58
2022-12-05T11:40:41.858Z,2.71
2022-12-05T11:46:02.002Z,2.94
2022-12-05T11:51:03.386Z,2.32
2022-12-05T11:56:12.822Z,2.31
2022-12-05T12:01:32.986Z,2.86
2022-12-05T12:06:44.966Z,2.52
2022-12-05T12:11:52.169Z,2.98
2022-12-05T12:16:53.542Z,2.94
2022-12-05T12:22:03.787Z,3.08
2022-12-05T12:27:22.939Z,3.02
2022-12-05T12:32:30.427Z,2.74
2022-12-05T12:37:31.979Z,2.49
2022-12-05T12:42:56.723Z,2.18
2022-12-05T12:47:58.042Z,2.30
2022-12-05T12:53:20.533Z,2.22
2022-12-05T12:58:24.979Z,2.12
2022-12-05T13:03:49.896Z,2.23
2022-12-05T13:09:13.062Z,2.26
2022-12-05T13:14:16.372Z,2.35
2022-12-05T13:19:20.706Z,2.04
2022-12-05T13:24:24.745Z,2.27
2022-12-05T13:29:29.612Z,2.25
2022-12-05T13:34:35.154Z,2.23
2022-12-05T13:39:55.468Z,2.03
2022-12-05T13:44:58.644Z,2.09
2022-12-05T13:50:03.205Z,1.81
2022-12-05T13:55:16.801Z,1.93
2022-12-05T14:00:18.137Z,1.86
2022-12-05T14:05:22.560Z,1.85
2022-12-05T14:10:23.870Z,1.98
2022-12-05T14:15:28.733Z,2.00
2022-12-05T14:20:39.225Z,2.08
2022-12-05T14:25:55.947Z,1.68
2022-12-05T14:31:02.051Z,1.78
2022-12-05T14:36:08.765Z,2.01
2022-12-05T14:41:22.901Z,1.65
2022-12-05T14:46:29.683Z,1.60
2022-12-05T14:51:31.054Z,1.66
2022-12-05T14:56:34.866Z,1.52
2022-12-05T15:01:42.242Z,1.69
2022-12-05T15:06:54.770Z,1.73
2022-12-05T15:11:56.623Z,1.74
2022-12-05T15:16:59.659Z,1.55
2022-12-05T15:22:06.141Z,1.49
2022-12-05T15:27:11.620Z,1.42
2022-12-05T15:32:12.993Z,1.32
2022-12-05T15:37:24.892Z,1.26
2022-12-05T15:42:45.771Z,1.40
2022-12-05T15:47:48.308Z,1.53
2022-12-05T15:53:00.456Z,1.52
2022-12-05T15:58:20.989Z,1.54
2022-12-05T16:03:36.884Z,1.53
2022-12-05T16:08:43.337Z,1.52
2022-12-05T16:13:46.333Z,1.41
2022-12-05T16:18:58.302Z,1.36
2022-12-05T16:24:00.735Z,1.33
2022-12-05T16:29:02.584Z,1.25
2022-12-05T16:34:08.130Z,1.24
2022-12-05T16:39:19.017Z,1.20
2022-12-05T16:44:27.068Z,1.29
2022-12-05T16:49:32.074Z,1.16
2022-12-05T16:54:33.700Z,1.16
2022-12-05T16:59:36.236Z,1.16
2022-12-05T17:04:38.680Z,1.21
2022-12-05T17:09:40.061Z,1.12
2022-12-05T17:14:41.432Z,1.08
2022-12-05T17:19:42.821Z,1.09
2022-12-05T17:24:44.451Z,1.17
2022-12-05T17:29:45.763Z,1.26
2022-12-05T17:34:47.073Z,1.21
2022-12-05T17:39:48.401Z,1.40
2022-12-05T17:44:49.713Z,1.34
2022-12-05T17:49:51.034Z,1.36
2022-12-05T17:54:52.297Z,1.36
2022-12-05T17:59:53.605Z,1.32
2022-12-05T18:04:55.040Z,1.37
2022-12-05T18:09:56.360Z,1.21
2022-12-05T18:14:57.959Z,1.27
2022-12-05T18:19:59.665Z,1.07
2022-12-05T18:25:03.208Z,1.14
2022-12-05T18:30:05.329Z,1.04
2022-12-05T18:35:12.750Z,1.06
2022-12-05T18:40:14.579Z,1.10
2022-12-05T18:45:15.923Z,1.05
2022-12-05T18:50:17.319Z,1.10
2022-12-05T18:55:26.911Z,1.08
2022-12-05T19:00:39.625Z,1.02
2022-12-05T19:05:42.758Z,0.98
2022-12-05T19:10:44.081Z,1.01
2022-12-05T19:15:45.887Z,1.30
2022-12-05T19:20:51.198Z,1.37
2022-12-05T19:25:59.091Z,1.16
2022-12-05T19:31:11.050Z,1.17
2022-12-05T19:36:13.910Z,1.32
2022-12-05T19:41:16.327Z,1.27
2022-12-05T19:46:21.724Z,1.02
2022-12-05T19:51:23.221Z,1.06
2022-12-05T19:56:25.585Z,1.11
2022-12-05T20:01:31.937Z,1.15
2022-12-05T20:06:37.960Z,1.12
2022-12-05T20:11:40.301Z,1.05
2022-12-05T20:16:41.791Z,1.14
2022-12-05T20:21:44.459Z,1.07
2022-12-05T20:26:45.998Z,1.08
2022-12-05T20:31:49.813Z,1.10
2022-12-05T20:36:51.189Z,1.24
2022-12-05T20:41:52.683Z,1.08
2022-12-05T20:46:54.092Z,1.09
2022-12-05T20:51:55.424Z,1.09
2022-12-05T20:56:56.755Z,1.00
2022-12-05T21:01:58.149Z,0.85
2022-12-05T21:06:59.799Z,1.00
2022-12-05T21:12:01.509Z,1.02
2022-12-05T21:17:02.841Z,0.96
2022-12-05T21:22:04.159Z,1.05
2022-12-05T21:27:05.576Z,1.01
2022-12-05T21:32:06.908Z,0.85
2022-12-05T21:37:08.227Z,0.84
2022-12-05T21:42:09.885Z,0.83
2022-12-05T21:47:11.214Z,0.97
2022-12-05T21:52:12.548Z,1.06
2022-12-05T21:57:13.950Z,0.98
2022-12-05T22:02:15.290Z,1.03
2022-12-05T22:07:16.709Z,0.92
2022-12-05T22:12:18.048Z,1.06
2022-12-05T22:17:19.362Z,1.09
2022-12-05T22:22:20.676Z,0.92
2022-12-05T22:27:22.034Z,0.95
2022-12-05T22:32:23.372Z,0.95
2022-12-05T22:37:24.719Z,0.81
2022-12-05T22:42:26.769Z,0.68
2022-12-05T22:47:28.101Z,0.73
2022-12-05T22:52:29.433Z,0.81
2022-12-05T22:57:30.753Z,0.81
2022-12-05T23:02:32.489Z,0.80
2022-12-05T23:07:33.905Z,0.77
2022-12-05T23:12:35.283Z,0.82
2022-12-05T23:17:36.646Z,0.75
2022-12-05T23:22:38.248Z,0.80
2022-12-05T23:27:39.599Z,0.83
2022-12-05T23:32:41.357Z,0.87
2022-12-05T23:37:42.877Z,0.87
2022-12-05T23:42:44.330Z,0.85
2022-12-05T23:47:45.690Z,0.75
2022-12-05T23:52:47.263Z,0.80
2022-12-05T23:57:48.567Z,0.87
